createdAt,value
2023-04-07T00:01:15.686Z,7.63
2023-04-07T00:03:46.257Z,7.33
2023-04-07T00:06:20.819Z,7.50
2023-04-07T00:08:49.460Z,8.70
2023-04-07T00:11:19.028Z,9.63
2023-04-07T00:13:47.401Z,8.63
2023-04-07T00:16:16.443Z,8.70
2023-04-07T00:18:46.269Z,6.47
2023-04-07T00:21:15.467Z,7.33
2023-04-07T00:23:43.708Z,7.40
2023-04-07T00:26:11.775Z,8.03
2023-04-07T00:28:41.378Z,8.53
2023-04-07T00:31:09.499Z,7.70
2023-04-07T00:33:39.224Z,8.07
2023-04-07T00:36:10.651Z,7.57
2023-04-07T00:38:38.948Z,7.53
2023-04-07T00:41:07.045Z,7.53
2023-04-07T00:43:35.419Z,6.87
2023-04-07T00:46:03.646Z,5.67
2023-04-07T00:48:32.101Z,7.40
2023-04-07T00:51:00.235Z,7.37
2023-04-07T00:53:30.721Z,8.40
2023-04-07T00:55:59.141Z,7.70
2023-04-07T00:58:27.468Z,5.73
2023-04-07T01:01:05.029Z,8.07
2023-04-07T01:03:37.841Z,10.00
2023-04-07T01:06:09.145Z,7.57
2023-04-07T01:08:49.881Z,8.93
2023-04-07T01:11:24.622Z,6.70
2023-04-07T01:13:54.134Z,8.20
2023-04-07T01:16:28.386Z,8.37
2023-04-07T01:18:58.783Z,8.13
2023-04-07T01:21:29.653Z,6.63
2023-04-07T01:24:33.884Z,6.97
2023-04-07T01:27:10.997Z,10.03
2023-04-07T01:29:47.784Z,8.10
2023-04-07T01:32:16.967Z,7.90
2023-04-07T01:34:46.534Z,6.77
2023-04-07T01:37:16.115Z,8.17
2023-04-07T01:39:44.563Z,7.23
2023-04-07T01:42:13.296Z,7.20
2023-04-07T01:44:43.804Z,7.67
2023-04-07T01:47:12.804Z,7.37
2023-04-07T01:49:42.647Z,7.90
2023-04-07T01:52:11.527Z,12.60
2023-04-07T01:54:39.917Z,6.90
2023-04-07T01:57:07.925Z,7.10
2023-04-07T01:59:36.621Z,6.63
2023-04-07T02:02:06.295Z,7.50
2023-04-07T02:04:46.216Z,7.33
2023-04-07T02:07:20.444Z,8.43
2023-04-07T02:09:49.401Z,7.90
2023-04-07T02:12:18.318Z,6.53
2023-04-07T02:14:47.899Z,6.57
2023-04-07T02:17:24.189Z,6.77
2023-04-07T02:19:53.659Z,6.33
2023-04-07T02:22:22.855Z,7.60
2023-04-07T02:24:50.911Z,8.10
2023-04-07T02:27:20.602Z,6.37
2023-04-07T02:29:55.070Z,9.57
2023-04-07T02:32:24.660Z,6.60
2023-04-07T02:34:53.949Z,6.23
2023-04-07T02:37:21.971Z,9.33
2023-04-07T02:39:50.047Z,8.00
2023-04-07T02:42:18.130Z,8.20
2023-04-07T02:44:46.160Z,7.13
2023-04-07T02:47:14.181Z,7.73
2023-04-07T02:49:43.687Z,6.73
2023-04-07T02:52:11.688Z,6.73
2023-04-07T02:54:39.755Z,8.63
2023-04-07T02:57:08.135Z,6.43
2023-04-07T02:59:36.297Z,7.67
2023-04-07T03:02:04.644Z,7.67
2023-04-07T03:04:35.284Z,7.43
2023-04-07T03:07:04.768Z,6.00
2023-04-07T03:09:32.894Z,5.67
2023-04-07T03:12:02.229Z,7.63
2023-04-07T03:14:30.352Z,6.60
2023-04-07T03:16:58.565Z,5.97
2023-04-07T03:19:27.376Z,6.10
2023-04-07T03:21:55.453Z,6.33
2023-04-07T03:24:24.951Z,5.77
2023-04-07T03:26:53.037Z,6.80
2023-04-07T03:29:21.101Z,6.70
2023-04-07T03:31:49.298Z,6.90
2023-04-07T03:34:17.340Z,5.40
2023-04-07T03:36:45.384Z,7.23
2023-04-07T03:39:14.140Z,7.30
2023-04-07T03:41:43.660Z,6.23
2023-04-07T03:44:11.704Z,6.97
2023-04-07T03:46:39.783Z,6.53
2023-04-07T03:49:08.001Z,7.03
2023-04-07T03:51:36.388Z,6.50
2023-04-07T03:54:04.935Z,6.60
2023-04-07T03:56:33.017Z,6.27
2023-04-07T03:59:02.473Z,7.00
2023-04-07T04:01:30.667Z,6.77
2023-04-07T04:03:59.174Z,7.60
2023-04-07T04:06:27.855Z,5.07
2023-04-07T04:08:55.912Z,5.63
2023-04-07T04:11:23.984Z,6.30
2023-04-07T04:13:52.193Z,6.70
2023-04-07T04:16:21.822Z,6.00
2023-04-07T04:18:49.981Z,6.20
2023-04-07T04:21:17.992Z,5.73
2023-04-07T04:23:46.152Z,6.70
2023-04-07T04:26:14.242Z,7.43
2023-04-07T04:28:42.250Z,8.03
2023-04-07T04:31:11.408Z,5.67
2023-04-07T04:33:41.242Z,6.97
2023-04-07T04:36:09.503Z,7.80
2023-04-07T04:38:37.536Z,6.30
2023-04-07T04:41:05.719Z,5.97
2023-04-07T04:43:34.996Z,5.30
2023-04-07T04:46:03.107Z,6.33
2023-04-07T04:48:31.192Z,5.77
2023-04-07T04:51:00.594Z,5.57
2023-04-07T04:53:28.771Z,5.03
2023-04-07T04:55:56.787Z,7.10
2023-04-07T04:58:24.903Z,10.17
2023-04-07T05:00:58.121Z,13.23
2023-04-07T05:03:27.173Z,9.07
2023-04-07T05:05:55.539Z,6.70
2023-04-07T05:08:25.014Z,6.37
2023-04-07T05:10:53.509Z,11.60
2023-04-07T05:13:21.541Z,9.63
2023-04-07T05:15:49.586Z,7.10
2023-04-07T05:18:17.646Z,8.73
2023-04-07T05:20:45.778Z,6.50
2023-04-07T05:23:13.830Z,6.70
2023-04-07T05:25:44.300Z,6.40
2023-04-07T05:28:12.351Z,6.93
2023-04-07T05:30:40.640Z,5.57
2023-04-07T05:33:08.679Z,5.67
2023-04-07T05:35:36.926Z,5.77
2023-04-07T05:38:04.966Z,6.67
2023-04-07T05:40:33.447Z,5.33
2023-04-07T05:43:06.614Z,5.87
2023-04-07T05:45:36.073Z,5.30
2023-04-07T05:48:04.178Z,6.90
2023-04-07T05:50:32.260Z,16.17
2023-04-07T05:53:00.273Z,13.33
2023-04-07T05:55:28.306Z,11.30
2023-04-07T05:57:56.371Z,8.77
2023-04-07T06:00:25.936Z,6.93
2023-04-07T06:02:54.287Z,5.30
2023-04-07T06:05:22.541Z,5.53
2023-04-07T06:07:50.757Z,5.83
2023-04-07T06:10:18.820Z,6.23
2023-04-07T06:12:46.804Z,4.93
2023-04-07T06:15:15.973Z,7.20
2023-04-07T06:17:46.179Z,6.63
2023-04-07T06:20:14.422Z,9.87
2023-04-07T06:22:42.479Z,6.67
2023-04-07T06:25:11.257Z,6.00
2023-04-07T06:27:39.358Z,9.17
2023-04-07T06:30:08.865Z,7.23
2023-04-07T06:32:36.977Z,6.37
2023-04-07T06:35:07.819Z,5.63
2023-04-07T06:37:35.904Z,7.80
2023-04-07T06:40:04.250Z,7.33
2023-04-07T06:42:32.322Z,5.90
2023-04-07T06:45:00.437Z,6.20
2023-04-07T06:47:28.525Z,6.10
2023-04-07T06:49:56.559Z,6.27
2023-04-07T06:52:27.118Z,6.73
2023-04-07T06:54:55.118Z,7.60
2023-04-07T06:57:23.172Z,7.53
2023-04-07T06:59:51.236Z,7.93
2023-04-07T07:02:19.576Z,7.03
2023-04-07T07:04:48.127Z,6.97
2023-04-07T07:07:16.157Z,7.30
2023-04-07T07:09:46.000Z,6.50
2023-04-07T07:12:15.321Z,7.00
2023-04-07T07:14:43.392Z,7.57
2023-04-07T07:17:11.487Z,8.97
2023-04-07T07:19:40.812Z,8.57
2023-04-07T07:22:09.227Z,8.47
2023-04-07T07:24:37.776Z,7.53
2023-04-07T07:27:07.573Z,7.90
2023-04-07T07:29:35.795Z,6.97
2023-04-07T07:32:03.911Z,6.93
2023-04-07T07:34:31.953Z,7.60
2023-04-07T07:37:00.498Z,6.40
2023-04-07T07:39:29.804Z,7.17
2023-04-07T07:41:57.859Z,5.47
2023-04-07T07:44:27.361Z,8.00
2023-04-07T07:46:55.476Z,7.47
2023-04-07T07:49:24.007Z,8.07
2023-04-07T07:51:52.081Z,6.57
2023-04-07T07:54:20.114Z,6.17
2023-04-07T07:56:48.323Z,6.43
2023-04-07T07:59:17.681Z,8.33
2023-04-07T08:01:47.312Z,5.67
2023-04-07T08:04:15.701Z,7.47
2023-04-07T08:06:44.008Z,5.87
2023-04-07T08:09:12.090Z,6.73
2023-04-07T08:11:40.275Z,5.27
2023-04-07T08:14:09.957Z,5.63
2023-04-07T08:16:38.598Z,7.13
2023-04-07T08:19:08.721Z,5.00
2023-04-07T08:21:37.550Z,6.00
2023-04-07T08:24:06.112Z,5.53
2023-04-07T08:26:35.299Z,6.47
2023-04-07T08:29:03.437Z,5.67
2023-04-07T08:31:31.754Z,7.70
2023-04-07T08:34:00.063Z,7.57
2023-04-07T08:36:30.280Z,5.97
2023-04-07T08:38:59.024Z,6.90
2023-04-07T08:41:33.863Z,5.93
2023-04-07T08:44:03.491Z,5.87
2023-04-07T08:46:32.406Z,6.67
2023-04-07T08:49:01.900Z,7.07
2023-04-07T08:51:32.826Z,7.53
2023-04-07T08:54:07.299Z,7.37
2023-04-07T08:56:35.784Z,6.30
2023-04-07T08:59:07.146Z,5.70
2023-04-07T09:01:37.410Z,7.50
2023-04-07T09:04:07.335Z,11.50
2023-04-07T09:06:37.133Z,7.33
2023-04-07T09:09:06.875Z,7.20
2023-04-07T09:11:37.597Z,6.70
2023-04-07T09:14:06.255Z,6.37
2023-04-07T09:16:34.643Z,6.77
2023-04-07T09:19:02.821Z,7.83
2023-04-07T09:21:51.741Z,7.27
2023-04-07T09:24:24.296Z,7.00
2023-04-07T09:26:52.758Z,6.87
2023-04-07T09:29:22.407Z,8.47
2023-04-07T09:31:55.025Z,7.30
2023-04-07T09:34:29.018Z,7.27
2023-04-07T09:36:59.355Z,6.90
2023-04-07T09:39:27.659Z,7.00
2023-04-07T09:41:56.056Z,7.23
2023-04-07T09:44:25.198Z,6.93
2023-04-07T09:46:54.363Z,6.10
2023-04-07T09:49:22.848Z,6.33
2023-04-07T09:51:59.853Z,5.73
2023-04-07T09:54:35.914Z,6.27
2023-04-07T09:57:05.067Z,7.33
2023-04-07T09:59:34.804Z,7.57
2023-04-07T10:02:05.620Z,7.30
2023-04-07T10:04:34.071Z,7.17
2023-04-07T10:07:04.575Z,7.13
2023-04-07T10:09:32.823Z,9.00
2023-04-07T10:12:01.170Z,6.53
2023-04-07T10:14:33.420Z,7.87
2023-04-07T10:17:02.436Z,8.17
2023-04-07T10:19:33.793Z,7.87
2023-04-07T10:22:06.272Z,7.23
2023-04-07T10:24:52.986Z,6.73
2023-04-07T10:27:25.461Z,6.83
2023-04-07T10:29:54.322Z,7.80
2023-04-07T10:32:22.777Z,6.80
2023-04-07T10:35:01.297Z,5.93
2023-04-07T10:37:31.141Z,6.07
2023-04-07T10:40:31.794Z,6.97
2023-04-07T10:43:01.210Z,4.60
2023-04-07T10:45:59.908Z,6.97
2023-04-07T10:48:34.213Z,5.77
2023-04-07T10:51:16.636Z,8.07
2023-04-07T10:54:29.686Z,8.03
2023-04-07T10:57:13.197Z,5.60
2023-04-07T11:00:04.528Z,6.23
2023-04-07T11:02:36.357Z,7.20
2023-04-07T11:05:05.371Z,5.40
2023-04-07T11:07:52.455Z,5.63
2023-04-07T11:10:22.110Z,5.80
2023-04-07T11:13:06.527Z,6.57
2023-04-07T11:15:38.550Z,6.50
2023-04-07T11:18:13.595Z,7.35
2023-04-07T11:20:55.746Z,6.43
2023-04-07T11:23:25.449Z,7.20
2023-04-07T11:25:54.895Z,6.77
2023-04-07T11:28:24.360Z,8.18
2023-04-07T11:30:54.499Z,6.95
2023-04-07T11:33:23.906Z,6.90
2023-04-07T11:35:57.020Z,6.47
2023-04-07T11:38:27.268Z,6.47
2023-04-07T11:40:56.380Z,7.10
2023-04-07T11:43:29.579Z,7.15
2023-04-07T11:46:10.917Z,7.45
2023-04-07T11:48:40.690Z,7.45
2023-04-07T11:51:16.614Z,6.78
2023-04-07T11:53:44.719Z,6.68
2023-04-07T11:56:16.836Z,6.15
2023-04-07T11:58:50.245Z,9.38
2023-04-07T12:01:18.997Z,6.68
2023-04-07T12:03:59.505Z,6.55
2023-04-07T12:06:34.564Z,6.93
2023-04-07T12:09:04.234Z,6.78
2023-04-07T12:11:32.862Z,6.60
2023-04-07T12:14:04.914Z,7.90
2023-04-07T12:16:33.004Z,6.88
2023-04-07T12:19:01.019Z,5.40
2023-04-07T12:21:28.998Z,5.28
2023-04-07T12:23:56.976Z,6.00
2023-04-07T12:26:25.461Z,7.13
2023-04-07T12:28:53.708Z,8.85
2023-04-07T12:31:23.087Z,4.22
2023-04-07T12:33:51.491Z,6.13
2023-04-07T12:36:19.524Z,7.00
2023-04-07T12:38:47.499Z,6.68
2023-04-07T12:41:15.594Z,6.72
2023-04-07T12:43:45.032Z,7.20
2023-04-07T12:46:14.637Z,6.50
2023-04-07T12:48:44.964Z,7.15
2023-04-07T12:51:13.069Z,5.97
2023-04-07T12:53:41.325Z,5.82
2023-04-07T12:56:09.324Z,7.35
2023-04-07T12:58:37.460Z,4.32
2023-04-07T13:01:06.065Z,5.55
2023-04-07T13:03:34.394Z,5.60
2023-04-07T13:06:04.557Z,9.38
2023-04-07T13:08:32.566Z,5.10
2023-04-07T13:11:00.590Z,4.55
2023-04-07T13:13:28.698Z,6.40
2023-04-07T13:15:56.975Z,5.15
2023-04-07T13:18:24.952Z,3.13
2023-04-07T13:21:10.729Z,3.90
2023-04-07T13:23:43.936Z,4.78
2023-04-07T13:26:12.228Z,2.50
2023-04-07T13:28:40.430Z,4.40
2023-04-07T13:31:09.397Z,4.03
2023-04-07T13:33:37.695Z,3.45
2023-04-07T13:36:05.768Z,4.28
2023-04-07T13:38:33.819Z,4.68
2023-04-07T13:41:04.754Z,3.13
2023-04-07T13:43:32.735Z,3.85
2023-04-07T13:46:00.814Z,3.70
2023-04-07T13:48:29.095Z,3.40
2023-04-07T13:50:57.173Z,3.50
2023-04-07T13:53:25.205Z,3.15
2023-04-07T13:55:53.210Z,3.90
2023-04-07T13:58:22.536Z,3.95
2023-04-07T14:00:50.502Z,2.53
2023-04-07T14:03:18.706Z,2.75
2023-04-07T14:05:46.715Z,3.10
2023-04-07T14:08:14.702Z,6.47
2023-04-07T14:10:43.321Z,6.30
2023-04-07T14:13:12.055Z,4.70
2023-04-07T14:15:42.019Z,4.38
2023-04-07T14:18:10.028Z,3.70
2023-04-07T14:20:38.375Z,3.60
2023-04-07T14:23:06.432Z,4.25
2023-04-07T14:25:34.404Z,3.30
2023-04-07T14:28:02.344Z,3.10
2023-04-07T14:30:30.861Z,4.43
2023-04-07T14:33:01.090Z,4.03
2023-04-07T14:35:29.934Z,2.65
2023-04-07T14:37:57.958Z,3.88
2023-04-07T14:40:25.929Z,4.70
2023-04-07T14:43:06.727Z,3.80
2023-04-07T14:45:35.775Z,3.80
2023-04-07T14:48:05.811Z,4.45
2023-04-07T14:50:34.389Z,3.40
2023-04-07T14:53:02.532Z,4.28
2023-04-07T14:55:31.231Z,4.25
2023-04-07T14:57:59.187Z,4.75
2023-04-07T15:00:28.739Z,5.72
2023-04-07T15:02:56.922Z,3.58
2023-04-07T15:05:27.975Z,4.45
2023-04-07T15:07:56.072Z,3.45
2023-04-07T15:10:24.108Z,4.72
2023-04-07T15:12:52.063Z,4.47
2023-04-07T15:15:20.338Z,4.15
2023-04-07T15:17:48.347Z,3.70
2023-04-07T15:20:16.373Z,2.75
2023-04-07T15:22:45.828Z,4.65
2023-04-07T15:25:13.828Z,3.65
2023-04-07T15:27:41.825Z,3.15
2023-04-07T15:30:10.397Z,3.97
2023-04-07T15:32:38.444Z,3.85
2023-04-07T15:35:07.146Z,4.70
2023-04-07T15:37:35.110Z,3.03
2023-04-07T15:40:04.776Z,4.43
2023-04-07T15:42:35.586Z,3.80
2023-04-07T15:45:03.603Z,4.07
2023-04-07T15:47:31.632Z,5.97
2023-04-07T15:49:59.656Z,6.88
2023-04-07T15:52:28.415Z,3.00
2023-04-07T15:54:56.906Z,3.85
2023-04-07T15:57:26.271Z,5.00
2023-04-07T15:59:54.199Z,3.17
2023-04-07T16:02:22.276Z,3.27
2023-04-07T16:04:50.345Z,3.70
2023-04-07T16:07:18.297Z,3.67
2023-04-07T16:09:46.299Z,3.47
2023-04-07T16:12:14.570Z,4.27
2023-04-07T16:14:43.959Z,3.43
2023-04-07T16:17:12.108Z,4.87
2023-04-07T16:19:40.118Z,4.13
2023-04-07T16:22:08.088Z,5.27
2023-04-07T16:24:36.043Z,2.73
2023-04-07T16:27:04.545Z,2.50
2023-04-07T16:29:32.608Z,2.63
2023-04-07T16:32:02.730Z,2.80
2023-04-07T16:34:30.727Z,2.50
2023-04-07T16:36:58.716Z,2.73
2023-04-07T16:39:28.953Z,2.83
2023-04-07T16:41:57.609Z,2.90
2023-04-07T16:44:25.940Z,3.53
2023-04-07T16:46:54.198Z,1.60
2023-04-07T16:49:23.571Z,2.20
2023-04-07T16:51:51.542Z,1.67
2023-04-07T16:54:19.517Z,2.63
2023-04-07T16:56:49.648Z,2.50
2023-04-07T16:59:17.627Z,1.67
2023-04-07T17:01:45.852Z,2.90
2023-04-07T17:04:14.040Z,2.33
2023-04-07T17:06:43.634Z,1.90
2023-04-07T17:09:12.178Z,3.13
2023-04-07T17:11:42.111Z,2.00
2023-04-07T17:14:10.154Z,3.03
2023-04-07T17:16:38.101Z,2.73
2023-04-07T17:19:06.282Z,2.37
2023-04-07T17:21:34.262Z,2.77
2023-04-07T17:24:03.584Z,2.73
2023-04-07T17:26:31.540Z,2.80
2023-04-07T17:29:00.612Z,2.30
2023-04-07T17:31:28.683Z,4.23
2023-04-07T17:33:56.720Z,4.60
2023-04-07T17:36:24.679Z,4.10
2023-04-07T17:38:52.708Z,6.10
2023-04-07T17:41:22.618Z,4.40
2023-04-07T17:43:50.756Z,3.47
2023-04-07T17:46:18.816Z,5.17
2023-04-07T17:48:46.938Z,4.00
2023-04-07T17:51:15.521Z,4.07
2023-04-07T17:53:43.513Z,3.30
2023-04-07T17:56:12.557Z,5.80
2023-04-07T17:58:42.199Z,5.00
2023-04-07T18:01:10.795Z,4.90
2023-04-07T18:03:39.178Z,6.27
2023-04-07T18:06:09.454Z,3.50
2023-04-07T18:08:37.618Z,4.53
2023-04-07T18:11:07.143Z,4.10
2023-04-07T18:13:35.238Z,3.63
2023-04-07T18:16:07.624Z,3.43
2023-04-07T18:18:36.306Z,3.93
2023-04-07T18:21:04.848Z,6.97
2023-04-07T18:23:32.884Z,4.37
2023-04-07T18:26:04.657Z,4.00
2023-04-07T18:28:32.941Z,6.10
2023-04-07T18:31:02.390Z,5.77
2023-04-07T18:33:34.001Z,4.80
2023-04-07T18:36:06.590Z,5.57
2023-04-07T18:38:34.772Z,4.70
2023-04-07T18:41:03.128Z,3.37
2023-04-07T18:43:31.323Z,3.73
2023-04-07T18:45:59.387Z,2.70
2023-04-07T18:48:27.427Z,3.00
2023-04-07T18:50:57.278Z,4.97
2023-04-07T18:53:26.190Z,5.40
2023-04-07T18:55:54.226Z,4.53
2023-04-07T18:58:22.233Z,3.90
2023-04-07T19:00:50.790Z,6.20
2023-04-07T19:03:18.919Z,3.37
2023-04-07T19:05:47.753Z,3.33
2023-04-07T19:08:17.471Z,3.90
2023-04-07T19:10:45.646Z,4.60
2023-04-07T19:13:15.693Z,4.13
2023-04-07T19:15:46.137Z,4.67
2023-04-07T19:18:14.127Z,4.87
2023-04-07T19:20:42.135Z,5.80
2023-04-07T19:23:10.108Z,5.93
2023-04-07T19:25:40.270Z,3.93
2023-04-07T19:28:08.255Z,3.90
2023-04-07T19:30:36.447Z,3.03
2023-04-07T19:33:04.506Z,10.47
2023-04-07T19:35:33.369Z,17.70
2023-04-07T19:38:02.079Z,18.63
2023-04-07T19:40:31.376Z,9.07
2023-04-07T19:43:00.920Z,14.57
2023-04-07T19:45:29.053Z,7.13
2023-04-07T19:47:57.220Z,8.20
2023-04-07T19:50:25.610Z,5.40
2023-04-07T19:52:53.620Z,8.37
2023-04-07T19:55:21.827Z,9.80
2023-04-07T19:57:50.003Z,6.97
2023-04-07T20:00:19.618Z,6.20
2023-04-07T20:02:47.756Z,5.30
2023-04-07T20:05:15.938Z,10.23
2023-04-07T20:07:44.170Z,6.37
2023-04-07T20:10:12.267Z,5.33
2023-04-07T20:12:40.320Z,5.57
2023-04-07T20:15:09.630Z,6.93
2023-04-07T20:17:39.035Z,8.47
2023-04-07T20:20:08.062Z,8.30
2023-04-07T20:22:36.470Z,9.00
2023-04-07T20:25:05.330Z,10.27
2023-04-07T20:27:33.631Z,10.00
2023-04-07T20:30:01.976Z,7.60
2023-04-07T20:32:30.057Z,7.43
2023-04-07T20:34:59.424Z,7.60
2023-04-07T20:37:27.795Z,5.07
2023-04-07T20:39:56.092Z,3.87
2023-04-07T20:42:24.086Z,5.00
2023-04-07T20:44:53.265Z,3.57
2023-04-07T20:47:21.933Z,5.27
2023-04-07T20:49:49.887Z,6.00
2023-04-07T20:52:19.367Z,6.03
2023-04-07T20:54:48.236Z,5.53
2023-04-07T20:57:16.190Z,5.90
2023-04-07T20:59:44.182Z,5.13
2023-04-07T21:02:12.272Z,5.20
2023-04-07T21:04:40.325Z,4.60
2023-04-07T21:07:08.357Z,7.03
2023-04-07T21:09:37.640Z,5.90
2023-04-07T21:12:05.737Z,6.57
2023-04-07T21:14:33.760Z,4.97
2023-04-07T21:17:01.720Z,6.50
2023-04-07T21:19:29.709Z,4.20
2023-04-07T21:21:57.662Z,5.23
2023-04-07T21:24:25.594Z,4.10
2023-04-07T21:26:56.946Z,4.20
2023-04-07T21:29:25.390Z,5.17
2023-04-07T21:31:53.508Z,4.53
2023-04-07T21:34:21.468Z,5.17
2023-04-07T21:36:49.423Z,4.07
2023-04-07T21:39:17.648Z,2.97
2023-04-07T21:41:45.641Z,4.53
2023-04-07T21:44:19.793Z,3.70
2023-04-07T21:46:47.871Z,5.03
2023-04-07T21:49:17.914Z,4.63
2023-04-07T21:51:45.936Z,3.90
2023-04-07T21:54:14.206Z,4.00
2023-04-07T21:56:42.361Z,4.17
2023-04-07T21:59:10.375Z,3.77
2023-04-07T22:01:39.792Z,3.43
2023-04-07T22:04:08.047Z,3.77
2023-04-07T22:06:36.109Z,2.53
2023-04-07T22:09:04.474Z,3.17
2023-04-07T22:11:32.574Z,3.50
2023-04-07T22:14:00.606Z,3.80
2023-04-07T22:16:28.646Z,2.13
2023-04-07T22:18:58.095Z,1.90
2023-04-07T22:21:27.037Z,4.17
2023-04-07T22:23:55.010Z,2.77
2023-04-07T22:26:23.046Z,1.97
2023-04-07T22:28:51.284Z,2.40
2023-04-07T22:31:19.493Z,2.83
2023-04-07T22:33:47.547Z,2.17
2023-04-07T22:36:16.871Z,3.40
2023-04-07T22:38:45.277Z,1.90
2023-04-07T22:41:13.252Z,5.10
2023-04-07T22:43:41.180Z,3.23
2023-04-07T22:46:09.207Z,2.97
2023-04-07T22:48:37.149Z,2.90
2023-04-07T22:51:05.089Z,3.77
2023-04-07T22:53:34.420Z,2.70
2023-04-07T22:56:02.561Z,3.50
2023-04-07T22:58:30.527Z,4.57
2023-04-07T23:00:58.638Z,2.67
2023-04-07T23:03:27.284Z,3.27
2023-04-07T23:05:56.237Z,2.33
2023-04-07T23:08:24.211Z,3.47
2023-04-07T23:10:53.955Z,3.23
2023-04-07T23:13:22.025Z,2.90
2023-04-07T23:15:49.949Z,3.97
2023-04-07T23:18:17.909Z,2.60
2023-04-07T23:20:51.846Z,2.87
2023-04-07T23:23:19.826Z,2.73
2023-04-07T23:25:47.769Z,3.10
2023-04-07T23:28:17.130Z,2.93
2023-04-07T23:30:45.087Z,2.67
2023-04-07T23:33:14.014Z,2.23
2023-04-07T23:35:42.045Z,2.47
2023-04-07T23:38:10.916Z,2.97
2023-04-07T23:40:38.905Z,3.87
2023-04-07T23:43:07.147Z,3.13
2023-04-07T23:45:36.536Z,3.83
2023-04-07T23:48:04.705Z,2.50
2023-04-07T23:50:32.738Z,2.33
2023-04-07T23:53:00.690Z,2.60
2023-04-07T23:55:28.682Z,3.03
2023-04-07T23:57:56.805Z,2.23
